Página principal
METAR-TAF:

METAR-TAF

Aeroportos :

Aeroporto Internacional de Mitiga

Trípoli, Líbia

latitude: 32-54N, longitude: 13-17E, altura: 11 m

Observação actual do tempo

O boletim foi feito há 3 horas e 29 minutos, às 08:50 UTC
Vento 7 kt de oes-noroeste
Temperatura 26°C
Humidade 48%
Pressão 1008 hPa
Visibilidade: 3000 m
Poucas nuvensa uma altura de 2500 ft
Nuvens dispersasa uma altura de 18000 ft
bruma

METAR: HLLM 180850Z 29007KT 3000 HZ FEW025 SCT180 26/14 Q1008

Hora: 14:19 (12:19 UTC)

Previsão

O boletim foi feito há 19 horas e 19 minutos, às 17:00 UTC
Previsão válida de 16 às 18 UTC a 17 às 18 UTC
Vento 12 kt de es-sudeste
Visibilidade: 8000 m

TAF: HLLM 161700Z 1618/1718 06012KT 8000 NSC BECMG1702/1704 12012KT

Observações e previsões do tempo de mais de 4000 aeroportos (mensagens METAR e TAF).

As estações disponíveis são os pontos amarelos e vermelhos sobre o mapa.

Mova o rato sobre o mapa para ver o nome da estação.

Depois clique no ponto para visualizar as observações e previsões meteorológicas.

Para alterar o mapa : clique nos botões verdes com uma cruz preta para aumentar o zoom; no botão verde com uma pitada de zoom; ou nas setas verdes para mapas adjacentes.


METAR-TAF: